logo
Search for airport 
image banner adimage banner adimage banner ad
image banner ad

FAUNDE - Underberg

Located in , South Africa

ICAO - , IATA -

Data provided by Airmate  

General information

Coordinates: S29°44'57" E29°30'15"
Elevation is 5055 feet MSL.
 
View others Airports in Kwazulu-Natal

Operational data

Special qualification required
Current time UTC:
Current local time:
Weather at : - ( 0 km )
METAR: SABE 140506Z 08011KT 4000 RA BKN008 OVC012 19/18 Q1013 NOSIG
View NOTAMs / SUP AIP / TFR affecting this airport [VIEW]
Communications frequencies: [VIEW]

Runways:

RWY identifierQFULength (ft)Width (ft)SurfaceLDA (ft)
04156°252649SAND
22336°252649SAND

Airport contact information

Address: South Africa

Satellite view of FAUNDE